createdAt,value
2022-12-12T00:00:22.442Z,22.17
2022-12-12T00:02:52.655Z,20.08
2022-12-12T00:05:21.546Z,25.20
2022-12-12T00:07:50.546Z,16.05
2022-12-12T00:10:19.232Z,17.05
2022-12-12T00:12:47.918Z,18.33
2022-12-12T00:15:16.469Z,29.13
2022-12-12T00:17:45.073Z,17.35
2022-12-12T00:20:15.166Z,21.70
2022-12-12T00:22:43.824Z,27.17
2022-12-12T00:25:12.899Z,16.45
2022-12-12T00:27:41.689Z,26.20
2022-12-12T00:30:11.871Z,19.50
2022-12-12T00:32:40.497Z,24.08
2022-12-12T00:35:10.321Z,24.77
2022-12-12T00:37:40.531Z,16.85
2022-12-12T00:40:11.487Z,25.35
2022-12-12T00:42:40.251Z,25.05
2022-12-12T00:46:27.125Z,23.38
2022-12-12T00:48:58.214Z,19.05
2022-12-12T00:51:30.775Z,21.45
2022-12-12T00:54:02.048Z,14.98
2022-12-12T00:56:32.185Z,22.63
2022-12-12T00:59:00.766Z,22.25
2022-12-12T01:01:33.268Z,21.00
2022-12-12T01:04:02.652Z,20.10
2022-12-12T01:06:32.844Z,32.85
2022-12-12T01:09:03.003Z,20.23
2022-12-12T01:11:31.691Z,19.58
2022-12-12T01:14:00.296Z,26.25
2022-12-12T01:16:28.992Z,24.83
2022-12-12T01:18:57.931Z,26.65
2022-12-12T01:21:26.881Z,20.23
2022-12-12T01:23:55.518Z,33.03
2022-12-12T01:26:26.236Z,46.30
2022-12-12T01:28:54.837Z,20.50
2022-12-12T01:31:23.636Z,27.60
2022-12-12T01:33:52.807Z,25.02
2022-12-12T01:36:24.476Z,18.95
2022-12-12T01:38:57.133Z,23.45
2022-12-12T01:41:27.667Z,32.75
2022-12-12T01:43:56.544Z,23.05
2022-12-12T01:46:43.439Z,31.80
2022-12-12T01:49:24.885Z,26.10
2022-12-12T01:51:59.774Z,25.02
2022-12-12T01:54:34.244Z,21.88
2022-12-12T01:57:09.637Z,23.92
2022-12-12T01:59:40.501Z,35.85
2022-12-12T02:02:10.961Z,23.30
2022-12-12T02:04:40.799Z,27.63
2022-12-12T02:07:13.594Z,19.45
2022-12-12T02:09:42.690Z,21.40
2022-12-12T02:12:16.080Z,26.05
2022-12-12T02:14:52.387Z,21.58
2022-12-12T02:18:02.254Z,30.15
2022-12-12T02:21:01.331Z,30.05
2022-12-12T02:24:06.950Z,24.83
2022-12-12T02:27:17.583Z,27.20
2022-12-12T02:30:23.340Z,16.00
2022-12-12T02:33:12.030Z,20.00
2022-12-12T02:36:00.511Z,23.55
2022-12-12T02:38:42.172Z,21.02
2022-12-12T02:41:23.893Z,17.17
2022-12-12T02:44:08.358Z,33.35
2022-12-12T02:46:47.438Z,24.98
2022-12-12T02:49:26.705Z,24.23
2022-12-12T02:51:58.503Z,32.28
2022-12-12T02:54:27.435Z,43.38
2022-12-12T02:56:58.877Z,19.75
2022-12-12T02:59:32.978Z,19.70
2022-12-12T03:02:47.271Z,27.58
2022-12-12T03:05:55.377Z,21.55
2022-12-12T03:08:41.194Z,25.95
2022-12-12T03:11:13.933Z,31.00
2022-12-12T03:13:48.941Z,23.33
2022-12-12T03:16:27.862Z,34.35
2022-12-12T03:19:04.830Z,16.35
2022-12-12T03:21:44.217Z,23.80
2022-12-12T03:24:26.320Z,21.60
2022-12-12T03:27:02.114Z,25.92
2022-12-12T03:29:36.324Z,36.08
2022-12-12T03:32:13.650Z,25.77
2022-12-12T03:34:48.621Z,30.00
2022-12-12T03:37:30.608Z,20.00
2022-12-12T03:40:05.529Z,27.90
2022-12-12T03:42:44.134Z,31.25
2022-12-12T03:45:22.155Z,30.02
2022-12-12T03:47:57.705Z,24.08
2022-12-12T03:50:32.277Z,23.98
2022-12-12T03:53:11.866Z,29.73
2022-12-12T03:55:49.992Z,21.40
2022-12-12T03:58:25.451Z,23.42
2022-12-12T04:01:00.803Z,27.77
2022-12-12T04:03:40.103Z,31.17
2022-12-12T04:06:28.196Z,15.25
2022-12-12T04:09:20.633Z,27.58
2022-12-12T04:12:18.940Z,27.17
2022-12-12T04:15:18.421Z,27.20
2022-12-12T04:18:02.459Z,18.17
2022-12-12T04:21:02.336Z,20.75
2022-12-12T04:23:38.737Z,30.73
2022-12-12T04:26:32.348Z,20.45
2022-12-12T04:29:09.730Z,19.40
2022-12-12T04:31:48.411Z,20.90
2022-12-12T04:34:30.149Z,16.40
2022-12-12T04:37:03.855Z,18.15
2022-12-12T04:39:37.000Z,20.15
2022-12-12T04:42:10.671Z,19.88
2022-12-12T04:44:42.467Z,16.95
2022-12-12T04:47:15.032Z,18.90
2022-12-12T04:49:48.035Z,22.50
2022-12-12T04:52:20.679Z,23.98
2022-12-12T04:54:54.602Z,15.88
2022-12-12T04:57:28.803Z,15.18
2022-12-12T04:59:58.476Z,15.57
2022-12-12T05:02:33.956Z,9.82
2022-12-12T05:05:10.973Z,14.45
2022-12-12T05:07:41.609Z,10.77
2022-12-12T05:10:17.590Z,8.35
2022-12-12T05:12:50.455Z,11.93
2022-12-12T05:15:21.688Z,14.02
2022-12-12T05:17:57.934Z,10.20
2022-12-12T05:20:27.132Z,7.00
2022-12-12T05:22:56.229Z,9.43
2022-12-12T05:25:25.445Z,12.88
2022-12-12T05:27:56.080Z,9.45
2022-12-12T05:30:25.560Z,14.23
2022-12-12T05:32:54.825Z,9.65
2022-12-12T05:35:24.367Z,12.48
2022-12-12T05:37:53.642Z,9.93
2022-12-12T05:40:24.063Z,8.25
2022-12-12T05:42:55.519Z,8.90
2022-12-12T05:45:24.709Z,10.35
2022-12-12T05:47:53.808Z,10.82
2022-12-12T05:50:22.850Z,11.50
2022-12-12T05:53:02.134Z,12.35
2022-12-12T05:59:40.960Z,11.15
2022-12-12T06:02:11.722Z,5.78
2022-12-12T06:04:42.630Z,6.70
2022-12-12T06:07:13.578Z,5.40
2022-12-12T06:09:46.857Z,8.80
2022-12-12T06:12:20.035Z,5.82
2022-12-12T06:14:52.530Z,6.22
2022-12-12T06:17:27.118Z,7.80
2022-12-12T06:20:00.306Z,8.35
2022-12-12T06:22:30.476Z,11.43
2022-12-12T06:25:01.355Z,6.20
2022-12-12T06:27:32.144Z,5.32
2022-12-12T06:30:04.001Z,5.07
2022-12-12T06:32:34.026Z,6.57
2022-12-12T06:35:04.495Z,8.65
2022-12-12T06:37:36.841Z,11.20
2022-12-12T06:40:07.548Z,10.35
2022-12-12T06:42:40.861Z,6.75
2022-12-12T06:45:46.082Z,7.47
2022-12-12T06:48:16.632Z,7.15
2022-12-12T06:50:47.697Z,9.48
2022-12-12T06:53:29.277Z,8.55
2022-12-12T06:55:59.576Z,5.05
2022-12-12T06:58:29.567Z,6.38
2022-12-12T07:01:02.104Z,6.53
2022-12-12T07:03:32.822Z,6.30
2022-12-12T07:06:03.009Z,7.75
2022-12-12T07:08:33.767Z,4.90
2022-12-12T07:11:10.240Z,7.80
2022-12-12T07:13:40.755Z,8.70
2022-12-12T07:16:13.834Z,7.57
2022-12-12T07:18:45.307Z,6.65
2022-12-12T07:21:17.125Z,6.90
2022-12-12T07:23:46.791Z,8.10
2022-12-12T07:26:17.641Z,10.40
2022-12-12T07:28:46.941Z,4.65
2022-12-12T07:31:19.200Z,7.10
2022-12-12T07:33:48.431Z,11.57
2022-12-12T07:36:18.086Z,10.85
2022-12-12T07:38:47.446Z,10.85
2022-12-12T07:41:18.750Z,12.48
2022-12-12T07:44:03.270Z,6.90
2022-12-12T07:46:33.857Z,16.67
2022-12-12T07:49:03.000Z,10.52
2022-12-12T07:51:32.312Z,10.88
2022-12-12T07:54:01.885Z,9.88
2022-12-12T07:56:31.380Z,11.40
2022-12-12T07:59:00.401Z,8.48
2022-12-12T08:01:30.803Z,5.65
2022-12-12T08:04:02.015Z,7.72
2022-12-12T08:06:31.260Z,9.60
2022-12-12T08:09:00.636Z,6.45
2022-12-12T08:11:29.756Z,8.35
2022-12-12T08:13:59.055Z,8.95
2022-12-12T08:16:30.454Z,9.88
2022-12-12T08:19:01.622Z,9.55
2022-12-12T08:21:31.139Z,7.80
2022-12-12T08:24:01.389Z,8.80
2022-12-12T08:26:31.327Z,9.75
2022-12-12T08:29:00.907Z,6.97
2022-12-12T08:31:30.114Z,8.23
2022-12-12T08:34:02.370Z,5.80
2022-12-12T08:36:33.472Z,5.30
2022-12-12T08:39:06.726Z,11.90
2022-12-12T08:41:37.637Z,11.02
2022-12-12T08:44:07.931Z,9.73
2022-12-12T08:46:37.457Z,5.80
2022-12-12T08:49:08.536Z,9.00
2022-12-12T08:51:39.354Z,6.82
2022-12-12T08:54:14.042Z,5.22
2022-12-12T08:56:43.552Z,7.22
2022-12-12T08:59:13.413Z,8.02
2022-12-12T09:01:43.041Z,6.20
2022-12-12T09:04:39.800Z,4.60
2022-12-12T09:07:09.217Z,4.40
2022-12-12T09:09:38.301Z,6.32
2022-12-12T09:12:07.881Z,6.25
2022-12-12T09:14:37.039Z,8.80
2022-12-12T09:17:06.075Z,6.00
2022-12-12T09:19:35.193Z,4.50
2022-12-12T09:22:05.806Z,5.72
2022-12-12T09:24:34.921Z,7.22
2022-12-12T09:27:03.930Z,4.75
2022-12-12T09:29:33.131Z,2.22
2022-12-12T09:32:31.479Z,4.93
2022-12-12T09:35:00.513Z,4.18
2022-12-12T09:37:32.609Z,5.95
2022-12-12T09:40:01.954Z,5.65
2022-12-12T09:42:33.521Z,6.28
2022-12-12T09:45:05.753Z,4.30
2022-12-12T09:47:43.030Z,10.20
2022-12-12T09:50:22.810Z,5.40
2022-12-12T09:52:56.170Z,5.63
2022-12-12T09:55:38.996Z,6.38
2022-12-12T09:58:18.682Z,5.15
2022-12-12T10:00:53.821Z,5.00
2022-12-12T10:03:46.041Z,5.60
2022-12-12T10:06:36.938Z,6.07
2022-12-12T10:09:30.947Z,9.30
2022-12-12T10:12:08.587Z,6.10
2022-12-12T10:14:41.966Z,3.75
2022-12-12T10:17:17.100Z,3.83
2022-12-12T10:19:51.188Z,5.38
2022-12-12T10:22:27.068Z,8.52
2022-12-12T10:25:07.537Z,9.20
2022-12-12T10:27:37.052Z,4.97
2022-12-12T10:30:17.796Z,4.22
2022-12-12T10:33:09.399Z,3.60
2022-12-12T10:35:44.709Z,5.43
2022-12-12T10:38:30.160Z,5.43
2022-12-12T10:41:49.636Z,5.25
2022-12-12T10:44:45.550Z,7.05
2022-12-12T10:47:16.220Z,4.72
2022-12-12T10:49:45.288Z,4.70
2022-12-12T10:52:19.700Z,5.10
2022-12-12T10:54:52.439Z,5.78
2022-12-12T10:57:24.667Z,9.48
2022-12-12T10:59:57.111Z,4.10
2022-12-12T11:02:38.546Z,4.50
2022-12-12T11:05:18.495Z,4.78
2022-12-12T11:07:49.776Z,3.88
2022-12-12T11:10:33.943Z,4.85
2022-12-12T11:13:14.443Z,5.32
2022-12-12T11:16:34.879Z,3.70
2022-12-12T11:19:08.558Z,5.22
2022-12-12T11:21:39.636Z,8.48
2022-12-12T11:24:14.476Z,6.47
2022-12-12T11:26:48.033Z,4.47
2022-12-12T11:29:31.821Z,4.60
2022-12-12T11:32:01.613Z,5.07
2022-12-12T11:34:35.426Z,4.43
2022-12-12T11:37:05.039Z,4.72
2022-12-12T11:39:45.560Z,6.25
2022-12-12T11:42:25.716Z,6.47
2022-12-12T11:45:03.713Z,4.53
2022-12-12T11:47:41.064Z,6.55
2022-12-12T11:50:45.956Z,4.53
2022-12-12T11:53:15.184Z,6.18
2022-12-12T11:55:55.817Z,6.57
2022-12-12T11:58:28.441Z,6.15
2022-12-12T12:01:04.549Z,5.70
2022-12-12T12:04:00.274Z,8.95
2022-12-12T12:06:42.332Z,8.55
2022-12-12T12:09:33.149Z,5.22
2022-12-12T12:12:12.199Z,6.55
2022-12-12T12:14:56.898Z,11.52
2022-12-12T12:17:43.507Z,7.18
2022-12-12T12:20:23.005Z,6.43
2022-12-12T12:23:04.765Z,8.88
2022-12-12T12:25:43.425Z,5.75
2022-12-12T12:28:44.133Z,5.05
2022-12-12T12:35:51.918Z,5.25
2022-12-12T12:38:32.731Z,6.55
2022-12-12T12:41:20.681Z,3.58
2022-12-12T12:44:09.902Z,7.03
2022-12-12T12:47:10.630Z,3.67
2022-12-12T12:49:45.154Z,4.38
2022-12-12T12:52:18.592Z,5.85
2022-12-12T12:54:50.380Z,5.07
2022-12-12T12:57:24.815Z,4.88
2022-12-12T12:59:58.439Z,4.82
2022-12-12T13:02:38.875Z,3.58
2022-12-12T13:05:14.128Z,2.90
2022-12-12T13:07:49.769Z,4.13
2022-12-12T13:10:23.931Z,4.10
2022-12-12T13:12:59.509Z,3.58
2022-12-12T13:15:32.873Z,4.43
2022-12-12T13:18:06.016Z,4.88
2022-12-12T13:20:41.634Z,2.85
2022-12-12T13:23:38.533Z,5.38
2022-12-12T13:26:14.535Z,12.15
2022-12-12T13:28:48.958Z,3.70
2022-12-12T13:31:45.186Z,4.20
2022-12-12T13:34:17.919Z,4.85
2022-12-12T13:36:50.537Z,4.95
2022-12-12T13:39:29.142Z,5.53
2022-12-12T13:42:02.196Z,4.35
2022-12-12T13:44:40.575Z,4.40
2022-12-12T13:47:46.589Z,4.95
2022-12-12T13:50:44.444Z,3.63
2022-12-12T13:53:21.512Z,8.52
2022-12-12T13:55:50.639Z,6.68
2022-12-12T13:58:35.486Z,4.20
2022-12-12T14:01:37.775Z,6.32
2022-12-12T14:04:07.138Z,2.40
2022-12-12T14:06:36.307Z,4.72
2022-12-12T14:09:05.708Z,4.07
2022-12-12T14:12:32.094Z,5.15
2022-12-12T14:15:05.832Z,6.18
2022-12-12T14:17:42.216Z,5.78
2022-12-12T14:20:30.634Z,8.02
2022-12-12T14:23:22.909Z,8.05
2022-12-12T14:26:44.714Z,10.07
2022-12-12T14:29:28.539Z,8.63
2022-12-12T14:32:14.989Z,11.98
2022-12-12T14:34:52.691Z,9.20
2022-12-12T14:37:38.308Z,11.50
2022-12-12T14:40:19.823Z,7.25
2022-12-12T14:43:19.288Z,10.13
2022-12-12T14:45:55.527Z,13.48
2022-12-12T14:48:28.084Z,13.15
2022-12-12T14:51:06.808Z,9.40
2022-12-12T14:53:47.428Z,11.50
2022-12-12T14:56:18.756Z,10.05
2022-12-12T14:59:03.165Z,13.98
2022-12-12T15:01:41.849Z,13.85
2022-12-12T15:04:28.582Z,9.25
2022-12-12T15:07:08.528Z,11.70
2022-12-12T15:09:48.056Z,7.72
2022-12-12T15:12:31.658Z,12.43
2022-12-12T15:15:09.935Z,10.10
2022-12-12T15:17:52.752Z,14.02
2022-12-12T15:20:33.858Z,6.72
2022-12-12T15:23:09.011Z,9.95
2022-12-12T15:25:45.803Z,8.13
2022-12-12T15:28:20.283Z,8.80
2022-12-12T15:30:53.607Z,13.82
2022-12-12T15:33:27.002Z,9.93
2022-12-12T15:36:02.088Z,11.27
2022-12-12T15:38:32.957Z,9.90
2022-12-12T15:41:11.207Z,14.70
2022-12-12T15:43:43.326Z,17.02
2022-12-12T15:46:17.155Z,7.90
2022-12-12T15:48:46.936Z,11.25
2022-12-12T15:51:24.589Z,8.18
2022-12-12T15:53:55.526Z,8.05
2022-12-12T15:56:27.950Z,7.85
2022-12-12T15:59:14.403Z,12.80
2022-12-12T16:01:43.913Z,8.25
2022-12-12T16:04:27.013Z,7.30
2022-12-12T16:07:21.697Z,6.82
2022-12-12T16:10:02.330Z,8.77
2022-12-12T16:13:00.122Z,7.30
2022-12-12T16:15:33.137Z,7.57
2022-12-12T16:18:08.201Z,7.72
2022-12-12T16:20:37.331Z,8.13
2022-12-12T16:23:28.913Z,9.18
2022-12-12T16:25:58.529Z,6.80
2022-12-12T16:28:29.377Z,7.97
2022-12-12T16:31:01.114Z,7.25
2022-12-12T16:33:34.232Z,8.57
2022-12-12T16:36:05.894Z,11.18
2022-12-12T16:38:37.053Z,7.95
2022-12-12T16:41:09.124Z,8.77
2022-12-12T16:43:39.856Z,8.35
2022-12-12T16:46:14.592Z,13.35
2022-12-12T16:48:43.801Z,7.75
2022-12-12T16:51:18.029Z,10.75
2022-12-12T16:53:48.645Z,9.27
2022-12-12T16:56:17.695Z,20.80
2022-12-12T16:58:48.392Z,8.80
2022-12-12T17:01:17.633Z,8.57
2022-12-12T17:03:47.085Z,7.78
2022-12-12T17:06:16.173Z,10.10
2022-12-12T17:08:45.168Z,15.43
2022-12-12T17:11:15.942Z,9.82
2022-12-12T17:13:49.159Z,7.47
2022-12-12T17:16:22.696Z,7.35
2022-12-12T17:18:54.998Z,5.95
2022-12-12T17:21:24.052Z,13.75
2022-12-12T17:23:53.120Z,7.38
2022-12-12T17:26:24.320Z,10.13
2022-12-12T17:28:53.661Z,7.40
2022-12-12T17:31:23.128Z,10.55
2022-12-12T17:33:52.395Z,6.30
2022-12-12T17:36:21.404Z,11.15
2022-12-12T17:38:50.735Z,7.35
2022-12-12T17:41:19.822Z,9.02
2022-12-12T17:43:55.314Z,11.10
2022-12-12T17:46:27.872Z,8.45
2022-12-12T17:48:58.764Z,7.07
2022-12-12T17:51:27.800Z,6.53
2022-12-12T17:53:58.196Z,12.52
2022-12-12T17:56:28.028Z,5.38
2022-12-12T17:58:58.536Z,4.43
2022-12-12T18:01:31.543Z,6.53
2022-12-12T18:04:02.733Z,5.50
2022-12-12T18:06:33.315Z,3.13
2022-12-12T18:09:03.353Z,8.40
2022-12-12T18:11:35.839Z,10.60
2022-12-12T18:14:08.603Z,5.78
2022-12-12T18:16:38.341Z,5.22
2022-12-12T18:19:07.422Z,6.30
2022-12-12T18:22:00.511Z,3.80
2022-12-12T18:24:29.669Z,5.60
2022-12-12T18:27:00.060Z,3.83
2022-12-12T18:29:31.011Z,4.30
2022-12-12T18:32:00.255Z,4.93
2022-12-12T18:34:29.500Z,4.53
2022-12-12T18:36:58.616Z,4.97
2022-12-12T18:39:27.803Z,5.45
2022-12-12T18:41:57.468Z,3.70
2022-12-12T18:44:26.539Z,3.72
2022-12-12T18:46:57.005Z,4.55
2022-12-12T18:49:26.335Z,3.70
2022-12-12T18:51:55.751Z,10.15
2022-12-12T18:54:24.859Z,6.78
2022-12-12T18:56:53.854Z,4.75
2022-12-12T18:59:23.597Z,2.70
2022-12-12T19:01:53.056Z,4.03
2022-12-12T19:04:23.936Z,5.80
2022-12-12T19:06:54.112Z,2.05
2022-12-12T19:09:23.628Z,6.47
2022-12-12T19:12:01.611Z,4.60
2022-12-12T19:17:25.722Z,5.40
2022-12-12T19:19:57.223Z,7.25
2022-12-12T19:25:17.394Z,5.15
2022-12-12T19:27:46.784Z,5.57
2022-12-12T19:30:17.123Z,4.90
2022-12-12T19:32:49.134Z,5.43
2022-12-12T19:35:19.960Z,10.63
2022-12-12T19:37:48.996Z,5.68
2022-12-12T19:40:18.366Z,7.35
2022-12-12T19:42:47.447Z,7.65
2022-12-12T19:45:16.801Z,6.15
2022-12-12T19:47:45.972Z,9.73
2022-12-12T19:50:15.310Z,7.43
2022-12-12T19:52:45.883Z,5.80
2022-12-12T19:55:16.741Z,5.75
2022-12-12T19:57:46.444Z,9.13
2022-12-12T20:00:19.984Z,7.88
2022-12-12T20:02:49.278Z,5.50
2022-12-12T20:05:18.438Z,8.23
2022-12-12T20:07:49.090Z,10.57
2022-12-12T20:10:18.398Z,8.80
2022-12-12T20:12:57.905Z,10.93
2022-12-12T20:15:27.780Z,9.82
2022-12-12T20:18:00.323Z,9.40
2022-12-12T20:20:29.409Z,8.00
2022-12-12T20:22:59.922Z,5.30
2022-12-12T20:25:28.976Z,18.17
2022-12-12T20:27:58.402Z,7.82
2022-12-12T20:30:28.320Z,6.20
2022-12-12T20:32:57.444Z,8.65
2022-12-12T20:35:26.541Z,9.73
2022-12-12T20:37:55.879Z,9.57
2022-12-12T20:40:26.967Z,9.02
2022-12-12T20:43:03.169Z,7.38
2022-12-12T20:45:33.318Z,8.38
2022-12-12T20:48:07.444Z,15.70
2022-12-12T20:50:37.426Z,12.20
2022-12-12T20:53:07.044Z,11.35
2022-12-12T20:55:40.558Z,12.65
2022-12-12T20:58:10.396Z,18.33
2022-12-12T21:00:40.894Z,16.60
2022-12-12T21:03:10.931Z,19.88
2022-12-12T21:05:40.640Z,20.77
2022-12-12T21:08:10.532Z,13.88
2022-12-12T21:10:41.898Z,16.13
2022-12-12T21:13:11.815Z,19.67
2022-12-12T21:15:41.630Z,22.30
2022-12-12T21:18:11.395Z,18.95
2022-12-12T21:20:45.328Z,18.02
2022-12-12T21:23:15.854Z,15.98
2022-12-12T21:25:47.555Z,15.77
2022-12-12T21:28:16.931Z,21.42
2022-12-12T21:30:46.258Z,17.08
2022-12-12T21:33:15.324Z,26.20
2022-12-12T21:35:44.454Z,16.13
2022-12-12T21:38:13.542Z,14.32
2022-12-12T21:40:42.727Z,19.75
2022-12-12T21:43:13.365Z,11.55
2022-12-12T21:45:42.441Z,10.48
2022-12-12T21:48:11.505Z,13.25
2022-12-12T21:50:40.786Z,14.82
2022-12-12T21:53:27.531Z,7.75
2022-12-12T21:56:03.061Z,14.23
2022-12-12T21:58:33.841Z,14.70
2022-12-12T22:01:07.646Z,13.13
2022-12-12T22:03:37.388Z,12.70
2022-12-12T22:06:12.390Z,14.18
2022-12-12T22:08:41.875Z,11.10
2022-12-12T22:11:11.462Z,14.02
2022-12-12T22:13:42.710Z,12.18
2022-12-12T22:16:15.422Z,14.85
2022-12-12T22:18:46.792Z,14.65
2022-12-12T22:21:19.101Z,10.50
2022-12-12T22:23:53.603Z,9.18
2022-12-12T22:26:25.993Z,8.88
2022-12-12T22:28:58.782Z,10.80
2022-12-12T22:31:30.110Z,6.63
2022-12-12T22:34:00.853Z,14.70
2022-12-12T22:36:32.166Z,9.80
2022-12-12T22:39:02.180Z,9.63
2022-12-12T22:41:34.212Z,15.65
2022-12-12T22:44:06.568Z,10.63
2022-12-12T22:46:43.548Z,13.88
2022-12-12T22:49:14.761Z,8.05
2022-12-12T22:51:44.595Z,11.43
2022-12-12T22:54:14.142Z,12.57
2022-12-12T22:56:44.020Z,12.95
2022-12-12T22:59:15.800Z,11.48
2022-12-12T23:01:45.268Z,13.70
2022-12-12T23:04:15.558Z,15.38
2022-12-12T23:06:45.417Z,12.38
2022-12-12T23:09:17.251Z,15.00
2022-12-12T23:11:47.384Z,7.78
2022-12-12T23:14:24.877Z,17.20
2022-12-12T23:16:55.816Z,13.93
2022-12-12T23:19:29.463Z,7.55
2022-12-12T23:22:04.168Z,10.55
2022-12-12T23:24:36.016Z,11.98
2022-12-12T23:27:08.848Z,9.98
2022-12-12T23:29:41.386Z,14.23
2022-12-12T23:32:14.712Z,13.13
2022-12-12T23:34:47.087Z,14.30
2022-12-12T23:37:21.116Z,15.18
2022-12-12T23:39:54.236Z,12.75
2022-12-12T23:42:27.789Z,15.60
2022-12-12T23:45:02.932Z,8.82
2022-12-12T23:47:36.593Z,15.88
2022-12-12T23:50:10.216Z,12.10
2022-12-12T23:52:42.856Z,18.83
2022-12-12T23:55:14.755Z,15.02
2022-12-12T23:57:45.696Z,15.70
